Time;durP1;ratioP1;P1;durP2;ratioP2;P2;SDS_P1;SDS_P2;PMS_P1;PMS_P2;Temp;Humidity;BMP_temperature;BMP_pressure;BME280_temperature;BME280_humidity;BME280_pressure;Samples;Min_cycle;Max_cycle;Signal;HPM_P1;HPM_P2
2023/12/30 00:08:13;;;;;;;;;;;;;;;;;;;;;
2023/12/30 00:11:52;;;;;;;;;;;;;;;;;;;;;
2023/12/30 00:18:39;;;;;;;0.73;0.73;;;-0.40;99.90;;;;;;4730554;30;20269;-89
2023/12/30 00:26:01;;;;;;;;;;;;;;;;;;;;;
2023/12/30 00:32:46;;;;;;;;;;;;;;;;;;;;;
2023/12/30 00:35:46;;;;;;;0.80;0.80;;;-0.50;99.90;;;;;;4901709;29;20481;-86
2023/12/30 00:39:13;;;;;;;0.70;0.70;;;-0.50;99.90;;;;;;4902168;29;20210;-86
2023/12/30 00:42:03;;;;;;;;;;;;;;;;;;;;;
2023/12/30 01:03:08;;;;;;;0.70;0.70;;;-0.40;99.90;;;;;;4833722;29;20202;-87
2023/12/30 01:06:09;;;;;;;;;;;;;;;;;;;;;
2023/12/30 01:09:08;;;;;;;0.80;0.80;;;-0.50;99.90;;;;;;4845230;29;20843;-86
2023/12/30 01:11:37;;;;;;;0.70;0.70;;;-0.50;99.90;;;;;;4885291;29;20192;-86
2023/12/30 01:15:09;;;;;;;0.73;0.73;;;-0.50;99.90;;;;;;4886863;29;20212;-86
2023/12/30 01:17:41;;;;;;;0.70;0.70;;;-0.60;99.90;;;;;;4886860;29;20811;-87
2023/12/30 01:20:07;;;;;;;0.80;0.80;;;-0.60;99.90;;;;;;4906975;29;20478;-86
2023/12/30 01:23:06;;;;;;;0.70;0.70;;;-0.60;99.90;;;;;;4908404;29;20297;-87
2023/12/30 01:25:41;;;;;;;0.70;0.70;;;-0.60;99.90;;;;;;4911076;29;20261;-87
2023/12/30 01:28:13;;;;;;;0.70;0.70;;;-0.60;99.90;;;;;;4942857;29;20267;-87
2023/12/30 01:30:40;;;;;;;0.77;0.77;;;-0.60;99.90;;;;;;5000859;28;20219;-86
2023/12/30 01:33:12;;;;;;;0.70;0.70;;;-0.60;99.90;;;;;;5001478;28;20195;-86
2023/12/30 01:35:37;;;;;;;0.70;0.70;;;-0.60;99.90;;;;;;4984496;28;20604;-86
2023/12/30 01:38:04;;;;;;;0.82;0.82;;;-0.60;99.90;;;;;;5051596;28;20209;-86
2023/12/30 01:40:57;;;;;;;0.68;0.68;;;-0.60;99.90;;;;;;5061926;28;20192;-90
2023/12/30 01:43:30;;;;;;;0.65;0.65;;;-0.70;99.90;;;;;;5062152;28;20218;-88
2023/12/30 01:46:32;;;;;;;0.60;0.60;;;-0.70;99.90;;;;;;5061416;28;20198;-89
2023/12/30 01:49:17;;;;;;;0.80;0.80;;;-0.70;99.90;;;;;;5059994;28;20227;-89
2023/12/30 01:51:45;;;;;;;0.80;0.80;;;-0.70;99.90;;;;;;5062334;28;20198;-89
2023/12/30 01:54:10;;;;;;;0.70;0.70;;;-0.70;99.90;;;;;;5061863;28;20660;-89
2023/12/30 01:56:46;;;;;;;0.63;0.63;;;-0.70;99.90;;;;;;5061142;28;20215;-88
2023/12/30 01:59:20;;;;;;;0.77;0.77;;;-0.70;99.90;;;;;;5060768;28;20208;-88
2023/12/30 02:01:55;;;;;;;0.70;0.70;;;-0.70;99.90;;;;;;5061214;28;20207;-89
2023/12/30 02:04:29;;;;;;;0.70;0.70;;;-0.70;99.90;;;;;;5061231;28;20213;-87
2023/12/30 02:07:00;;;;;;;0.73;0.73;;;-0.70;99.90;;;;;;5060850;28;20208;-89
2023/12/30 02:10:02;;;;;;;0.68;0.68;;;-0.70;99.90;;;;;;5058480;28;20194;-88
2023/12/30 02:13:04;;;;;;;0.80;0.80;;;-0.70;99.90;;;;;;5054531;28;20193;-88
2023/12/30 02:15:43;;;;;;;0.70;0.70;;;-0.60;99.90;;;;;;5051904;28;20237;-88
2023/12/30 02:22:15;;;;;;;0.68;0.68;;;-0.60;99.90;;;;;;5010365;28;20702;-90
2023/12/30 02:24:41;;;;;;;0.70;0.70;;;-0.70;99.90;;;;;;5055500;28;20288;-88
2023/12/30 02:27:06;;;;;;;0.90;0.90;;;-0.70;99.90;;;;;;5073850;28;20338;-89
2023/12/30 02:29:32;;;;;;;0.70;0.70;;;-0.70;99.90;;;;;;5056912;28;20193;-90
2023/12/30 02:31:58;;;;;;;0.60;0.60;;;-0.80;99.90;;;;;;5057859;28;20283;-90
2023/12/30 02:34:23;;;;;;;0.90;0.90;;;-0.70;99.90;;;;;;5057726;28;20189;-89
2023/12/30 02:36:49;;;;;;;0.70;0.70;;;-0.70;99.90;;;;;;5057098;28;20235;-89
2023/12/30 02:39:15;;;;;;;0.80;0.80;;;-0.70;99.90;;;;;;5055332;28;20192;-89
2023/12/30 02:41:41;;;;;;;0.70;0.70;;;-0.70;99.90;;;;;;5053230;28;20200;-90
2023/12/30 02:44:07;;;;;;;0.70;0.70;;;-0.70;99.90;;;;;;5037990;28;20198;-90
2023/12/30 02:46:32;;;;;;;0.70;0.70;;;-0.60;99.90;;;;;;5038086;28;20212;-89
2023/12/30 02:49:02;;;;;;;0.70;0.70;;;-0.70;99.90;;;;;;5038223;28;20221;-88
2023/12/30 02:51:29;;;;;;;0.70;0.70;;;-0.60;99.90;;;;;;5036141;28;20233;-86
2023/12/30 02:53:55;;;;;;;0.70;0.70;;;-0.70;99.90;;;;;;5054240;28;20194;-85
2023/12/30 02:56:23;;;;;;;0.70;0.70;;;-0.70;99.90;;;;;;5035893;28;20197;-86
2023/12/30 02:59:02;;;;;;;0.70;0.70;;;-0.70;99.90;;;;;;5035929;28;20193;-86
2023/12/30 03:01:30;;;;;;;0.60;0.60;;;-0.70;99.90;;;;;;5035788;28;20197;-86
2023/12/30 03:04:06;;;;;;;0.70;0.70;;;-0.70;99.90;;;;;;5035632;28;20236;-87
2023/12/30 03:06:35;;;;;;;0.65;0.65;;;-0.70;99.90;;;;;;5046262;28;20652;-86
2023/12/30 03:09:01;;;;;;;0.70;0.70;;;-0.70;99.90;;;;;;5054421;28;20291;-87
2023/12/30 03:11:30;;;;;;;0.70;0.70;;;-0.70;99.90;;;;;;5073101;28;20706;-86
2023/12/30 03:13:56;;;;;;;0.70;0.70;;;-0.70;99.90;;;;;;5072396;28;20201;-86
2023/12/30 03:16:21;;;;;;;0.70;0.70;;;-0.60;99.90;;;;;;5072310;28;20717;-86
2023/12/30 03:18:47;;;;;;;0.68;0.68;;;-0.60;99.90;;;;;;5072670;28;20203;-86
2023/12/30 03:21:16;;;;;;;3.35;1.85;;;-0.50;99.90;;;;;;5072062;28;20193;-86
2023/12/30 03:23:42;;;;;;;0.70;0.70;;;-0.50;99.90;;;;;;5072442;28;20200;-86
2023/12/30 03:26:10;;;;;;;0.70;0.70;;;-0.50;99.90;;;;;;5055034;28;20307;-87
2023/12/30 03:28:39;;;;;;;0.80;0.80;;;-0.50;99.90;;;;;;5051613;28;20229;-87
2023/12/30 03:31:07;;;;;;;0.80;0.80;;;-0.50;99.90;;;;;;5068931;28;20257;-86
2023/12/30 03:33:33;;;;;;;0.80;0.80;;;-0.50;99.90;;;;;;5068179;28;20204;-86
2023/12/30 03:35:58;;;;;;;0.70;0.70;;;-0.50;99.90;;;;;;5052056;28;20205;-86
2023/12/30 03:38:24;;;;;;;0.70;0.70;;;-0.50;99.90;;;;;;5052037;28;20331;-86
2023/12/30 03:40:50;;;;;;;0.70;0.70;;;-0.50;99.90;;;;;;5036402;28;20206;-86
2023/12/30 03:43:18;;;;;;;0.57;0.57;;;-0.50;99.90;;;;;;5048448;28;20235;-86
2023/12/30 03:45:44;;;;;;;0.70;0.70;;;-0.50;99.90;;;;;;5033050;28;20636;-86
2023/12/30 03:48:10;;;;;;;0.60;0.60;;;-0.60;99.90;;;;;;5047090;28;20305;-86
2023/12/30 03:50:37;;;;;;;1.05;0.90;;;-0.60;99.90;;;;;;5048218;28;20573;-86
2023/12/30 03:53:04;;;;;;;0.70;0.70;;;-0.60;99.90;;;;;;5062893;28;20251;-87
2023/12/30 03:55:29;;;;;;;0.70;0.70;;;-0.70;99.90;;;;;;5051284;28;20224;-86
2023/12/30 03:57:55;;;;;;;0.80;0.80;;;-0.60;99.90;;;;;;5052760;28;20189;-86
2023/12/30 04:00:21;;;;;;;0.75;0.75;;;-0.70;99.90;;;;;;5051552;28;20228;-88
2023/12/30 04:02:47;;;;;;;0.70;0.70;;;-0.70;99.90;;;;;;5050305;28;20726;-88
2023/12/30 04:05:13;;;;;;;0.77;0.77;;;-0.70;99.90;;;;;;5054080;28;20190;-88
2023/12/30 04:07:39;;;;;;;0.60;0.60;;;-0.60;99.90;;;;;;5052284;28;20271;-89
2023/12/30 04:10:06;;;;;;;0.70;0.70;;;-0.60;99.90;;;;;;5048755;28;20217;-88
2023/12/30 04:12:35;;;;;;;0.70;0.70;;;-0.60;99.90;;;;;;5048827;28;20288;-89
2023/12/30 04:15:01;;;;;;;0.60;0.60;;;-0.70;99.90;;;;;;5049264;28;20739;-87
2023/12/30 04:17:29;;;;;;;0.70;0.70;;;-0.60;99.90;;;;;;5049335;28;20209;-89
2023/12/30 04:19:55;;;;;;;0.60;0.60;;;-0.60;99.90;;;;;;5049279;28;20201;-89
2023/12/30 04:22:21;;;;;;;0.60;0.60;;;-0.60;99.90;;;;;;5033740;28;20190;-88
2023/12/30 04:24:51;;;;;;;0.70;0.70;;;-0.60;99.90;;;;;;5048028;28;20202;-88
2023/12/30 04:27:17;;;;;;;0.70;0.70;;;-0.60;99.90;;;;;;5051792;28;20256;-88
2023/12/30 04:29:46;;;;;;;0.60;0.60;;;-0.60;99.90;;;;;;5055999;28;20702;-85
2023/12/30 04:32:12;;;;;;;0.77;0.77;;;-0.60;99.90;;;;;;5054754;28;20205;-85
2023/12/30 04:34:46;;;;;;;0.90;0.90;;;-0.60;99.90;;;;;;5054165;28;20694;-85
2023/12/30 04:37:15;;;;;;;0.60;0.60;;;-0.60;99.90;;;;;;5054693;28;20246;-85
2023/12/30 04:39:40;;;;;;;0.77;0.77;;;-0.60;99.90;;;;;;5054039;28;20216;-86
2023/12/30 04:42:06;;;;;;;0.63;0.63;;;-0.50;99.90;;;;;;5071026;28;20201;-86
2023/12/30 04:44:32;;;;;;;0.70;0.70;;;-0.50;99.90;;;;;;5072411;28;20226;-85
2023/12/30 04:46:58;;;;;;;0.70;0.70;;;-0.60;99.90;;;;;;5074287;28;20197;-86
2023/12/30 04:49:57;;;;;;;0.70;0.70;;;-0.60;99.90;;;;;;5074510;28;20196;-85
2023/12/30 04:55:49;;;;;;;0.70;0.70;;;-0.60;99.90;;;;;;5061972;28;20254;-85
2023/12/30 04:58:16;;;;;;;0.60;0.60;;;-0.60;99.90;;;;;;5074165;28;20240;-86
2023/12/30 05:00:47;;;;;;;0.80;0.80;;;-0.60;99.90;;;;;;5058625;28;20200;-84
2023/12/30 05:03:20;;;;;;;0.60;0.60;;;-0.60;99.90;;;;;;5058846;28;20291;-85
2023/12/30 05:05:51;;;;;;;0.80;0.80;;;-0.60;99.90;;;;;;5077206;28;20210;-85
2023/12/30 05:08:19;;;;;;;1.05;1.00;;;-0.60;99.90;;;;;;5060507;28;20236;-85
2023/12/30 05:10:45;;;;;;;0.70;0.70;;;-0.60;99.90;;;;;;5065309;28;20189;-87
2023/12/30 05:13:13;;;;;;;0.65;0.65;;;-0.60;99.90;;;;;;5077094;28;20280;-87
2023/12/30 05:15:39;;;;;;;0.80;0.80;;;-0.70;99.90;;;;;;5091516;28;20189;-86
2023/12/30 05:18:05;;;;;;;0.80;0.80;;;-0.60;99.90;;;;;;5081369;28;20250;-86
2023/12/30 05:20:31;;;;;;;0.70;0.70;;;-0.70;99.90;;;;;;5073290;28;20455;-86
2023/12/30 05:23:00;;;;;;;0.70;0.70;;;-0.70;99.90;;;;;;5057315;28;20213;-86
2023/12/30 05:25:26;;;;;;;0.70;0.70;;;-0.70;99.90;;;;;;5056818;28;20226;-87
2023/12/30 05:27:52;;;;;;;0.80;0.80;;;-0.70;99.90;;;;;;5070793;28;20213;-86
2023/12/30 05:30:17;;;;;;;0.70;0.70;;;-0.70;99.90;;;;;;5076599;28;20209;-87
2023/12/30 05:32:43;;;;;;;0.77;0.77;;;-0.70;99.90;;;;;;5075593;28;20204;-87
2023/12/30 05:35:13;;;;;;;0.80;0.80;;;-0.70;99.90;;;;;;5075115;28;20221;-87
2023/12/30 05:37:43;;;;;;;0.60;0.60;;;-0.70;99.90;;;;;;5074534;28;20208;-87
2023/12/30 05:40:10;;;;;;;0.77;0.77;;;-0.70;99.90;;;;;;5063730;28;20229;-87
2023/12/30 05:42:38;;;;;;;0.90;0.90;;;-0.70;99.90;;;;;;5053125;28;20224;-86
2023/12/30 05:45:05;;;;;;;0.90;0.90;;;-0.70;99.90;;;;;;5052471;28;20250;-86
2023/12/30 05:47:31;;;;;;;0.75;0.75;;;-0.70;99.90;;;;;;5036232;28;20208;-85
2023/12/30 05:49:57;;;;;;;1.00;1.00;;;-0.70;99.90;;;;;;5036892;28;20226;-85
2023/12/30 05:52:32;;;;;;;0.80;0.80;;;-0.70;99.90;;;;;;5036348;28;20692;-86
2023/12/30 05:55:04;;;;;;;0.60;0.60;;;-0.70;99.90;;;;;;5043655;28;20201;-86
2023/12/30 05:57:31;;;;;;;0.80;0.80;;;-0.70;99.90;;;;;;5053755;28;20198;-87
2023/12/30 05:59:56;;;;;;;0.75;0.75;;;-0.70;99.90;;;;;;5055511;28;20205;-87
2023/12/30 06:02:22;;;;;;;0.68;0.68;;;-0.70;99.90;;;;;;5054778;28;20206;-86
2023/12/30 06:04:50;;;;;;;0.70;0.70;;;-0.70;99.90;;;;;;5071789;28;20197;-85
2023/12/30 06:07:16;;;;;;;0.70;0.70;;;-0.70;99.90;;;;;;5053342;28;20202;-86
2023/12/30 06:09:42;;;;;;;0.80;0.80;;;-0.70;99.90;;;;;;5053493;28;20193;-86
2023/12/30 06:12:09;;;;;;;0.70;0.70;;;-0.70;99.90;;;;;;5054291;28;20190;-86
2023/12/30 06:14:36;;;;;;;0.70;0.70;;;-0.70;99.90;;;;;;5069058;28;20667;-86
2023/12/30 06:17:05;;;;;;;0.73;0.73;;;-0.70;99.90;;;;;;5070114;28;20220;-88
2023/12/30 06:19:44;;;;;;;;;;;;;;;;;;;;;
2023/12/30 06:22:10;;;;;;;0.60;0.60;;;-0.70;99.90;;;;;;5055349;28;20181;-87
2023/12/30 06:24:46;;;;;;;0.80;0.80;;;-0.70;99.90;;;;;;5053507;28;20787;-86
2023/12/30 06:27:12;;;;;;;0.70;0.70;;;-0.70;99.90;;;;;;5053148;28;20696;-87
2023/12/30 06:29:41;;;;;;;0.80;0.80;;;-0.70;99.90;;;;;;5053008;28;20280;-87
2023/12/30 06:32:13;;;;;;;0.65;0.65;;;-0.70;99.90;;;;;;5053492;28;20635;-87
2023/12/30 06:34:39;;;;;;;0.88;0.88;;;-0.80;99.90;;;;;;5052853;28;20197;-87
2023/12/30 06:37:10;;;;;;;0.70;0.70;;;-0.80;99.90;;;;;;5050009;28;20616;-87
2023/12/30 06:39:38;;;;;;;0.80;0.80;;;-0.80;99.90;;;;;;5049793;28;20690;-87
2023/12/30 06:42:24;;;;;;;0.80;0.80;;;-0.90;99.90;;;;;;5049666;28;20205;-87
2023/12/30 06:45:10;;;;;;;0.77;0.77;;;-0.80;99.90;;;;;;5049478;28;20574;-88
2023/12/30 06:47:42;;;;;;;0.80;0.80;;;-0.70;99.90;;;;;;5033345;28;20685;-87
2023/12/30 06:50:22;;;;;;;;;;;;;;;;;;;;;
2023/12/30 06:52:55;;;;;;;0.60;0.60;;;-0.70;99.90;;;;;;5033956;28;20205;-87
2023/12/30 06:58:22;;;;;;;;;;;;;;;;;;;;;
2023/12/30 07:01:07;;;;;;;0.60;0.60;;;-0.70;99.90;;;;;;5033304;28;20204;-87
2023/12/30 07:03:40;;;;;;;0.80;0.80;;;-0.70;99.90;;;;;;5048687;28;20639;-87
2023/12/30 07:06:51;;;;;;;0.70;0.70;;;-0.70;99.90;;;;;;5049007;28;20202;-86
2023/12/30 07:09:27;;;;;;;0.80;0.80;;;-0.70;99.90;;;;;;5048397;28;20264;-87
2023/12/30 07:12:38;;;;;;;0.73;0.73;;;-0.70;99.90;;;;;;5031794;28;20248;-87
2023/12/30 07:15:07;;;;;;;0.80;0.80;;;-0.70;99.90;;;;;;5029623;28;20727;-87
2023/12/30 07:17:49;;;;;;;0.73;0.73;;;-0.60;99.90;;;;;;5031912;28;20195;-86
2023/12/30 07:20:30;;;;;;;0.77;0.77;;;-0.70;99.90;;;;;;5051593;28;20205;-86
2023/12/30 07:22:56;;;;;;;0.70;0.70;;;-0.70;99.90;;;;;;5030449;28;20207;-86
2023/12/30 07:25:27;;;;;;;0.80;0.80;;;-0.70;99.90;;;;;;5047332;28;20234;-83
2023/12/30 07:28:05;;;;;;;0.77;0.77;;;-0.70;99.90;;;;;;5032542;28;20681;-87
2023/12/30 07:30:31;;;;;;;0.75;0.75;;;-0.70;99.90;;;;;;5030756;28;20711;-87
2023/12/30 07:33:02;;;;;;;1.27;1.08;;;-0.70;99.90;;;;;;5032891;28;20182;-86
2023/12/30 07:35:41;;;;;;;0.68;0.68;;;-0.70;99.90;;;;;;5032294;28;20183;-86
2023/12/30 07:38:07;;;;;;;0.80;0.80;;;-0.70;99.90;;;;;;5046041;28;20267;-86
2023/12/30 07:40:36;;;;;;;0.75;0.75;;;-0.70;99.90;;;;;;5067512;28;20198;-86
2023/12/30 07:43:08;;;;;;;0.90;0.90;;;-0.70;99.90;;;;;;5067727;28;20196;-86
2023/12/30 07:46:26;;;;;;;0.80;0.80;;;-0.70;99.90;;;;;;5067446;28;20201;-87
2023/12/30 07:48:55;;;;;;;0.68;0.68;;;-0.70;99.90;;;;;;5028628;28;20242;-86
2023/12/30 07:51:42;;;;;;;0.70;0.70;;;-0.80;99.90;;;;;;5029077;28;20733;-86
2023/12/30 07:54:40;;;;;;;0.80;0.80;;;-0.70;99.90;;;;;;5028062;28;20693;-87
2023/12/30 07:57:11;;;;;;;0.80;0.80;;;-0.70;99.90;;;;;;5008665;28;20261;-86
2023/12/30 07:59:40;;;;;;;0.80;0.80;;;-0.70;99.90;;;;;;5028987;28;20257;-87
2023/12/30 08:02:19;;;;;;;0.80;0.80;;;-0.70;99.90;;;;;;5029191;28;20205;-85
2023/12/30 08:04:45;;;;;;;0.80;0.80;;;-0.70;99.90;;;;;;5029667;28;20226;-88
2023/12/30 08:07:20;;;;;;;0.80;0.80;;;-0.70;99.90;;;;;;5028996;28;20788;-87
2023/12/30 08:09:45;;;;;;;0.70;0.70;;;-0.70;99.90;;;;;;5025712;28;20249;-88
2023/12/30 08:12:11;;;;;;;0.80;0.80;;;-0.70;99.90;;;;;;5009650;28;20685;-87
2023/12/30 08:14:38;;;;;;;0.80;0.80;;;-0.70;99.90;;;;;;5016721;28;20320;-87
2023/12/30 08:17:04;;;;;;;0.98;0.98;;;-0.70;99.90;;;;;;5029155;28;20288;-87
2023/12/30 08:19:30;;;;;;;4.45;1.63;;;-0.80;99.90;;;;;;5028848;28;20225;-87
2023/12/30 08:21:59;;;;;;;1.08;1.08;;;-0.80;99.90;;;;;;5012322;28;20198;-86
2023/12/30 08:24:30;;;;;;;0.70;0.70;;;-0.80;99.90;;;;;;5030437;28;20206;-86
2023/12/30 08:26:56;;;;;;;0.80;0.80;;;-0.80;99.90;;;;;;5049707;28;20249;-86
2023/12/30 08:29:22;;;;;;;0.70;0.70;;;-0.80;99.90;;;;;;5033270;28;20298;-88
2023/12/30 08:31:47;;;;;;;0.65;0.65;;;-0.80;99.90;;;;;;5033318;28;20247;-87
2023/12/30 08:34:14;;;;;;;0.70;0.70;;;-0.80;99.90;;;;;;5033259;28;20193;-87
2023/12/30 08:36:40;;;;;;;0.75;0.75;;;-0.80;99.90;;;;;;5033469;28;20592;-87
2023/12/30 08:39:07;;;;;;;0.75;0.75;;;-0.70;99.90;;;;;;5051269;28;20205;-88
2023/12/30 08:41:36;;;;;;;0.70;0.70;;;-0.60;99.90;;;;;;5053018;28;20213;-88
2023/12/30 08:44:02;;;;;;;0.80;0.80;;;-0.60;99.90;;;;;;5046863;28;20200;-88
2023/12/30 08:46:30;;;;;;;0.80;0.80;;;-0.60;99.90;;;;;;5055235;28;20201;-88
2023/12/30 08:48:59;;;;;;;0.70;0.70;;;-0.60;99.90;;;;;;5056265;28;20345;-89
2023/12/30 08:51:28;;;;;;;0.85;0.85;;;-0.60;99.90;;;;;;5056533;28;20172;-88
2023/12/30 08:54:39;;;;;;;2.15;1.33;;;-0.60;99.90;;;;;;5075367;28;20152;-88
2023/12/30 09:00:28;;;;;;;0.60;0.60;;;-0.50;99.90;;;;;;4953597;29;20647;-88
2023/12/30 09:03:24;;;;;;;0.70;0.70;;;-0.40;99.90;;;;;;4953244;29;20181;-89
2023/12/30 09:05:49;;;;;;;0.90;0.90;;;-0.40;99.90;;;;;;4949614;29;20181;-88
2023/12/30 09:08:28;;;;;;;0.77;0.77;;;-0.40;99.90;;;;;;4952538;29;20208;-88
2023/12/30 09:11:03;;;;;;;0.70;0.70;;;-0.30;99.90;;;;;;4952954;29;20228;-88
2023/12/30 09:13:31;;;;;;;0.60;0.60;;;-0.30;99.90;;;;;;4952777;29;20184;-88
2023/12/30 09:16:05;;;;;;;0.80;0.80;;;-0.30;99.90;;;;;;4936840;29;20186;-88
2023/12/30 09:18:42;;;;;;;0.80;0.80;;;-0.20;99.90;;;;;;4936872;29;20176;-88
2023/12/30 09:21:18;;;;;;;1.20;1.10;;;-0.20;99.90;;;;;;4952953;29;20177;-88
2023/12/30 09:23:59;;;;;;;0.70;0.70;;;-0.10;99.90;;;;;;4936979;29;20177;-87
2023/12/30 09:26:36;;;;;;;0.80;0.80;;;0.00;99.90;;;;;;4936258;29;20225;-89
2023/12/30 09:29:15;;;;;;;1.27;1.17;;;0.00;99.90;;;;;;4952481;29;20224;-89
2023/12/30 09:31:42;;;;;;;0.80;0.80;;;0.00;99.90;;;;;;4943799;28;20204;-88
2023/12/30 09:34:10;;;;;;;0.75;0.75;;;0.00;99.90;;;;;;5032452;28;20693;-88
2023/12/30 09:36:46;;;;;;;0.60;0.60;;;0.00;99.90;;;;;;5031087;28;20246;-91
2023/12/30 09:39:23;;;;;;;0.70;0.70;;;0.00;99.90;;;;;;5034920;28;20229;-92
2023/12/30 09:41:54;;;;;;;0.70;0.70;;;0.00;99.90;;;;;;5055803;28;20165;-88
2023/12/30 09:44:23;;;;;;;0.75;0.75;;;0.10;99.90;;;;;;5038668;28;20181;-89
2023/12/30 09:46:50;;;;;;;0.70;0.70;;;0.10;99.90;;;;;;5056545;28;20154;-88
2023/12/30 09:49:17;;;;;;;0.70;0.70;;;0.10;99.90;;;;;;5054773;28;20622;-89
2023/12/30 09:51:49;;;;;;;0.75;0.75;;;0.10;99.90;;;;;;5056189;28;20168;-91
2023/12/30 09:54:17;;;;;;;0.60;0.60;;;0.20;99.90;;;;;;5055689;28;20174;-90
2023/12/30 09:56:43;;;;;;;0.75;0.75;;;0.10;99.90;;;;;;5056317;28;20185;-92
2023/12/30 09:59:29;;;;;;;;;;;;;;;;;;;;;
2023/12/30 10:01:59;;;;;;;0.60;0.60;;;0.20;99.90;;;;;;5057413;28;20173;-90
2023/12/30 10:04:25;;;;;;;0.77;0.77;;;0.10;99.90;;;;;;5057264;28;20204;-92
2023/12/30 10:06:58;;;;;;;1.10;1.05;;;0.10;99.90;;;;;;5056779;28;20178;-92
2023/12/30 10:09:26;;;;;;;0.60;0.60;;;0.10;99.90;;;;;;5049672;28;20171;-93
2023/12/30 10:12:22;;;;;;;0.70;0.70;;;0.10;99.90;;;;;;5037426;28;20183;-92
2023/12/30 10:15:21;;;;;;;0.60;0.60;;;0.00;99.90;;;;;;5036605;28;20273;-93
2023/12/30 10:18:01;;;;;;;0.70;0.70;;;0.00;99.90;;;;;;5034242;28;20213;-92
2023/12/30 10:20:40;;;;;;;0.60;0.60;;;0.00;99.90;;;;;;5036531;28;20677;-94
2023/12/30 10:23:08;;;;;;;0.82;0.82;;;0.00;99.90;;;;;;5036615;28;20166;-93
2023/12/30 10:25:41;;;;;;;0.80;0.80;;;0.10;99.90;;;;;;5040913;28;20221;-93
2023/12/30 10:32:04;;;;;;;;;;;;;;;;;;;;;
2023/12/30 10:35:26;;;;;;;0.70;0.70;;;0.10;99.90;;;;;;5070569;28;20160;-91
2023/12/30 10:37:51;;;;;;;0.70;0.70;;;0.20;99.90;;;;;;4975663;28;20194;-92
2023/12/30 10:40:23;;;;;;;0.73;0.73;;;0.20;99.90;;;;;;4976317;28;20176;-91
2023/12/30 10:42:53;;;;;;;0.70;0.70;;;0.20;99.90;;;;;;4975293;28;20540;-91
2023/12/30 10:45:44;;;;;;;0.77;0.77;;;0.20;99.90;;;;;;4975367;28;20183;-90
2023/12/30 10:48:14;;;;;;;0.77;0.77;;;0.30;99.90;;;;;;4975321;28;20231;-90
2023/12/30 10:50:53;;;;;;;0.77;0.77;;;0.40;99.90;;;;;;4975530;28;20176;-90
2023/12/30 11:00:44;;;;;;;0.82;0.82;;;0.50;99.90;;;;;;4968339;28;20176;-92
2023/12/30 11:03:37;;;;;;;0.68;0.68;;;0.50;99.90;;;;;;4975560;28;20211;-91
2023/12/30 11:06:42;;;;;;;0.68;0.68;;;0.50;99.90;;;;;;5015744;28;20183;-91
2023/12/30 11:09:13;;;;;;;1.75;1.52;;;0.50;99.90;;;;;;5018012;28;20686;-91
2023/12/30 11:11:52;;;;;;;3.03;1.95;;;0.60;99.90;;;;;;5017542;28;20178;-92
2023/12/30 11:14:42;;;;;;;0.80;0.80;;;0.60;99.90;;;;;;5018930;28;20174;-91
2023/12/30 11:18:13;;;;;;;;;;;;;;;;;;;;;
2023/12/30 11:25:03;;;;;;;0.80;0.80;;;0.70;99.90;;;;;;5020560;28;20231;-93
2023/12/30 11:27:40;;;;;;;0.60;0.60;;;0.70;99.90;;;;;;4916754;29;20784;-92
2023/12/30 11:38:49;;;;;;;0.63;0.63;;;0.80;99.90;;;;;;4936984;28;20201;-93
2023/12/30 11:41:28;;;;;;;0.70;0.70;;;0.80;99.90;;;;;;4867598;29;20195;-93
2023/12/30 11:55:15;;;;;;;;;;;;;;;;;;;;;
2023/12/30 11:57:49;;;;;;;0.70;0.70;;;0.80;99.90;;;;;;4940056;28;20223;-92
2023/12/30 12:00:21;;;;;;;0.90;0.90;;;0.80;99.90;;;;;;4934591;29;20177;-92
2023/12/30 12:02:53;;;;;;;0.70;0.70;;;0.70;99.90;;;;;;4927406;29;20761;-90
2023/12/30 12:05:28;;;;;;;0.70;0.70;;;0.70;99.90;;;;;;4955405;29;20177;-88
2023/12/30 12:07:56;;;;;;;0.60;0.60;;;0.60;99.90;;;;;;4948862;28;20327;-93
2023/12/30 12:10:22;;;;;;;0.98;0.93;;;0.60;99.90;;;;;;4984364;28;20235;-92
2023/12/30 12:13:45;;;;;;;0.65;0.65;;;0.60;99.90;;;;;;4975718;28;20203;-85
2023/12/30 12:16:19;;;;;;;0.82;0.82;;;0.60;99.90;;;;;;4955347;28;20191;-86
2023/12/30 12:18:57;;;;;;;2.40;1.52;;;0.70;99.90;;;;;;4973982;28;20235;-86
2023/12/30 12:21:47;;;;;;;0.80;0.80;;;0.60;99.90;;;;;;4973824;28;20746;-86
2023/12/30 12:24:13;;;;;;;1.15;1.15;;;0.60;99.90;;;;;;4973908;28;20271;-86
2023/12/30 12:26:38;;;;;;;0.70;0.70;;;0.70;99.90;;;;;;5002932;28;20657;-86
2023/12/30 12:29:05;;;;;;;0.60;0.60;;;0.60;99.90;;;;;;5043428;28;20261;-86
2023/12/30 12:31:34;;;;;;;0.70;0.70;;;0.60;99.90;;;;;;5069887;28;20243;-85
2023/12/30 12:34:41;;;;;;;0.80;0.80;;;0.70;99.90;;;;;;5069946;28;20169;-86
2023/12/30 12:37:14;;;;;;;0.60;0.60;;;0.70;99.90;;;;;;5053623;28;20218;-86
2023/12/30 12:39:49;;;;;;;0.60;0.60;;;0.80;99.90;;;;;;5070802;28;20165;-87
2023/12/30 12:42:15;;;;;;;0.73;0.73;;;0.80;99.90;;;;;;5070225;28;20168;-86
2023/12/30 12:44:44;;;;;;;0.77;0.77;;;0.80;99.90;;;;;;5071614;28;20153;-86
2023/12/30 12:47:12;;;;;;;0.70;0.70;;;0.80;99.90;;;;;;5069965;28;20215;-86
2023/12/30 12:49:39;;;;;;;0.70;0.70;;;0.80;99.90;;;;;;5070156;28;20578;-86
2023/12/30 12:52:06;;;;;;;0.70;0.70;;;0.80;99.90;;;;;;5070571;28;20220;-87
2023/12/30 12:55:12;;;;;;;0.60;0.60;;;0.80;99.90;;;;;;5070589;28;20168;-86
2023/12/30 12:57:38;;;;;;;0.80;0.80;;;0.80;99.90;;;;;;5050248;28;20173;-85
2023/12/30 13:03:32;;;;;;;0.70;0.70;;;0.70;99.90;;;;;;5072056;28;20525;-86
2023/12/30 13:09:53;;;;;;;0.70;0.70;;;0.70;99.90;;;;;;5056412;28;20196;-87
2023/12/30 13:12:20;;;;;;;0.80;0.80;;;0.70;99.90;;;;;;5071331;28;20613;-87
2023/12/30 13:14:52;;;;;;;0.70;0.70;;;0.70;99.90;;;;;;5057058;28;20795;-86
2023/12/30 13:17:32;;;;;;;0.70;0.70;;;0.70;99.90;;;;;;5073471;28;20188;-86
2023/12/30 13:20:03;;;;;;;0.60;0.60;;;0.70;99.90;;;;;;5073307;28;20595;-87
2023/12/30 13:22:32;;;;;;;0.60;0.60;;;0.60;99.90;;;;;;5057365;28;20245;-89
2023/12/30 13:27:46;;;;;;;0.65;0.65;;;0.60;99.90;;;;;;5075544;28;20266;-89
2023/12/30 13:30:22;;;;;;;1.95;1.55;;;0.60;99.90;;;;;;5074595;28;20162;-89
2023/12/30 13:33:02;;;;;;;0.60;0.60;;;0.50;99.90;;;;;;5074165;28;20644;-89
2023/12/30 13:35:36;;;;;;;0.70;0.70;;;0.50;99.90;;;;;;5074496;28;20264;-89
2023/12/30 13:38:20;;;;;;;0.60;0.60;;;0.50;99.90;;;;;;5075368;28;20223;-90
2023/12/30 13:40:47;;;;;;;0.70;0.70;;;0.40;99.90;;;;;;5073903;28;20181;-90
2023/12/30 13:43:13;;;;;;;0.60;0.60;;;0.40;99.90;;;;;;5057116;28;20172;-90
2023/12/30 13:45:46;;;;;;;0.82;0.82;;;0.40;99.90;;;;;;5073796;28;20168;-89
2023/12/30 13:51:06;;;;;;;0.70;0.70;;;0.30;99.90;;;;;;5075138;28;20160;-90
2023/12/30 13:53:34;;;;;;;0.77;0.77;;;0.30;99.90;;;;;;5073646;28;20665;-89
2023/12/30 13:56:04;;;;;;;0.70;0.70;;;0.30;99.90;;;;;;5058093;28;20169;-89
2023/12/30 13:59:07;;;;;;;0.70;0.70;;;0.30;99.90;;;;;;5057342;28;20207;-89
2023/12/30 14:01:44;;;;;;;1.20;1.10;;;0.20;99.90;;;;;;5058080;28;20168;-89
2023/12/30 14:04:22;;;;;;;0.60;0.60;;;0.20;99.90;;;;;;5057543;28;20168;-89
2023/12/30 14:07:13;;;;;;;0.70;0.70;;;0.20;99.90;;;;;;5057898;28;20195;-90
2023/12/30 14:10:06;;;;;;;0.73;0.73;;;0.20;99.90;;;;;;5057604;28;20234;-90
2023/12/30 14:12:59;;;;;;;;;;;;;;;;;;;;;
2023/12/30 14:19:03;;;;;;;0.68;0.68;;;0.20;99.90;;;;;;5071319;28;20169;-87
2023/12/30 14:21:51;;;;;;;0.70;0.70;;;0.20;99.90;;;;;;5070947;28;20222;-86
2023/12/30 14:25:10;;;;;;;0.80;0.80;;;0.20;99.90;;;;;;5072811;28;20176;-87
2023/12/30 14:27:37;;;;;;;0.88;0.88;;;0.20;99.90;;;;;;4994278;28;20270;-86
2023/12/30 14:30:08;;;;;;;0.68;0.68;;;0.10;99.90;;;;;;4991740;28;20237;-86
2023/12/30 14:32:34;;;;;;;0.85;0.85;;;0.10;99.90;;;;;;4983463;28;20246;-89
2023/12/30 14:35:03;;;;;;;0.80;0.80;;;0.10;99.90;;;;;;4998560;28;20183;-89
2023/12/30 14:37:29;;;;;;;0.70;0.70;;;0.10;99.90;;;;;;4995794;28;20630;-89
2023/12/30 14:39:55;;;;;;;0.70;0.70;;;0.10;99.90;;;;;;4995868;28;20185;-89
2023/12/30 14:42:21;;;;;;;1.08;1.02;;;0.10;99.90;;;;;;5011817;28;20834;-89
2023/12/30 14:44:48;;;;;;;0.70;0.70;;;0.10;99.90;;;;;;4995137;28;20258;-89
2023/12/30 14:47:14;;;;;;;0.70;0.70;;;0.10;99.90;;;;;;4995755;28;20280;-89
2023/12/30 14:49:42;;;;;;;0.80;0.80;;;0.00;99.90;;;;;;4977920;28;20651;-88
2023/12/30 14:52:21;;;;;;;0.68;0.68;;;0.00;99.90;;;;;;4990447;28;20231;-89
2023/12/30 14:55:11;;;;;;;0.80;0.80;;;0.00;99.90;;;;;;4959263;28;20730;-89
2023/12/30 14:58:01;;;;;;;;;;;;;;;;;;;;;
2023/12/30 15:01:05;;;;;;;0.70;0.70;;;0.00;99.90;;;;;;4979153;28;20180;-89
2023/12/30 15:03:55;;;;;;;;;;;;;;;;;;;;;
2023/12/30 15:09:33;;;;;;;0.80;0.80;;;0.00;99.90;;;;;;5019740;28;20217;-89
2023/12/30 15:12:01;;;;;;;0.73;0.73;;;0.00;99.90;;;;;;5017123;28;20239;-89
2023/12/30 15:15:02;;;;;;;0.60;0.60;;;0.00;99.90;;;;;;5017079;28;20653;-88
2023/12/30 15:17:35;;;;;;;0.70;0.70;;;0.00;99.90;;;;;;5026477;28;20219;-90
2023/12/30 15:20:18;;;;;;;0.90;0.90;;;0.00;99.90;;;;;;5037727;28;20892;-91
2023/12/30 15:25:44;;;;;;;0.80;0.80;;;-0.10;99.90;;;;;;4951659;29;20220;-87
2023/12/30 15:29:20;;;;;;;;;;;;;;;;;;;;;
2023/12/30 15:31:49;;;;;;;0.70;0.70;;;-0.10;99.90;;;;;;4894987;29;20187;-86
2023/12/30 15:35:10;;;;;;;0.70;0.70;;;-0.10;99.90;;;;;;4895328;29;20683;-87
2023/12/30 15:37:52;;;;;;;0.80;0.80;;;-0.20;99.90;;;;;;4855610;29;20196;-87
2023/12/30 15:40:41;;;;;;;0.70;0.70;;;-0.10;99.90;;;;;;4875252;29;20939;-88